Historyczne dane pomiarowe

Dodano dane terminowe – wersja testowa.

Dane z okresu 1951-2019

Wersja bazy: 1.34 [2019-03-16, lista zmian], aktualizacja planowana na 2019-04-15

Dane meteo z obszaru Polski uzyskane na podstawie danych udostępnionych przez Instytut Meteorologii i Gospodarki Wodnej – Państwowy Instytut Badawczy.

 

Wybierz Datę:    

       

TemperaturaWilgotnośćWiatrCiśnienieOpadyŚniegCzas trwania zjawisk
 Stacja t tx tn tng RH VA  wxwx mslp ppp RRR   cm mm wxwxwxwxwxwxwx
2003-01-14 -2.0 1.0 -6.3 -8.1-- 8.0----- 6.1-- 5---------
2003-01-15 2.9 4.4 0.4 -3.4-- 8.0----- 0.9------------
2003-01-16 1.0 3.0 -0.8 -5.5-- 6.0----- 0.0------------
2003-01-17 1.9 3.6 0.2 -4.4-- 7.0----- 0.0------------
2003-01-18 -0.1 4.9 -2.7 -8.4-- 5.0----- 0.0------------
2003-01-19 -1.1 2.0 -3.7-10.2-- 7.7----- 0.0------------
2003-01-20 -2.4 0.5 -4.2-10.7-- 6.7----- 0.0------------
2003-01-21 -2.5 0.0 -4.2-10.2-- 6.7----- 0.0------------
2003-01-22 -1.3 0.6 -3.1 -7.1-- 7.3----- 0.0------------
2003-01-23 0.6 1.6 -0.1 -4.3-- 7.0----- 0.0------------
2003-01-24 0.6 1.4 0.0 -3.9-- 8.0----- 0.4------------
2003-01-25 0.3 1.4 -0.6 -4.4-- 7.7----- 0.0------------
2003-01-26 -0.2 0.9 -1.1 -6.5-- 8.0----- 0.0------------
2003-01-27 0.9 2.5 -0.6 -4.7-- 8.0----- 0.8------------
2003-01-28 2.2 3.9 -0.1 -3.4-- 8.0----- 4.3------------
2003-01-29 2.0 4.9 0.4 -4.4-- 6.7----- 0.0------------
2003-01-30 0.5 2.9 -1.1 -5.5-- 7.3----- 0.0------------
2003-01-31 -1.9 0.5 -3.4 -8.6-- 7.7----- 0.0------------
2003-02-01 -5.6 -1.5 -7.8-12.6-- 6.7----- 0.0------------
2003-02-02-10.4 -6.1-12.9-18.3-- 6.0----- 0.0------------
2003-02-03 -7.7 -3.3-11.4-15.9-- 6.0----- 0.0------------
2003-02-04 -6.6 -4.1 -8.9-13.6-- 7.7----- 5.2------------
2003-02-05 -5.6 -4.1 -6.8-10.7-- 8.0----- 13.1-- 8---------
2003-02-06 -5.9 -4.3 -8.3-11.2-- 8.0----- 6.0-- 22---------
2003-02-07 -5.1 -2.9 -6.8-11.2-- 8.0----- 0.3-- 30---------
2003-02-08 -4.1 0.5 -7.3-12.1-- 8.0----- 0.1-- 30---------
2003-02-09 -3.0 -1.0 -5.8-10.7-- 6.7----- 0.0-- 30---------
2003-02-10 -4.0 -2.2 -5.3 -9.7-- 8.0----- 0.2-- 25---------
2003-02-11-10.9 -3.6-17.1-26.0-- 5.7----- 0.0-- 25---------
2003-02-12-23.0-10.7-30.2-35.5-- 5.3----- 0.0-- 25---------
224.5 ms

 

Źródłem pochodzenia danych jest Instytut Meteorologii i Gospodarki Wodnej – Państwowy Instytut Badawczy. Dane Instytutu Meteorologii i Gospodarki Wodnej – Państwowego Instytutu Badawczego zostały przetworzone.

Dane źródłowe można odnaleźć na stronie https://dane.imgw.pl